createdAt,value
2022-12-08T00:01:22.031Z,6.25
2022-12-08T00:03:49.051Z,7.22
2022-12-08T00:06:49.080Z,7.28
2022-12-08T00:09:36.352Z,6.18
2022-12-08T00:12:13.497Z,6.72
2022-12-08T00:17:10.006Z,5.30
2022-12-08T00:19:36.987Z,6.30
2022-12-08T00:22:03.708Z,6.32
2022-12-08T00:24:33.394Z,5.45
2022-12-08T00:27:00.079Z,6.22
2022-12-08T00:29:26.850Z,5.75
2022-12-08T00:31:53.745Z,5.95
2022-12-08T00:34:20.657Z,5.93
2022-12-08T00:36:50.205Z,5.75
2022-12-08T00:39:17.716Z,5.30
2022-12-08T00:42:02.928Z,5.13
2022-12-08T00:44:29.629Z,6.55
2022-12-08T00:46:56.412Z,5.70
2022-12-08T00:49:23.159Z,5.18
2022-12-08T00:51:49.889Z,5.68
2022-12-08T00:54:17.126Z,6.00
2022-12-08T00:56:43.788Z,5.43
2022-12-08T00:59:10.738Z,5.45
2022-12-08T01:01:37.485Z,5.15
2022-12-08T01:04:05.920Z,5.45
2022-12-08T01:06:32.685Z,4.90
2022-12-08T01:08:59.449Z,4.43
2022-12-08T01:11:26.131Z,4.75
2022-12-08T01:13:54.057Z,4.65
2022-12-08T01:16:23.476Z,5.05
2022-12-08T01:18:50.177Z,4.75
2022-12-08T01:21:17.793Z,4.53
2022-12-08T01:23:44.665Z,4.68
2022-12-08T01:26:13.896Z,5.05
2022-12-08T01:28:41.119Z,4.20
2022-12-08T01:31:16.727Z,4.10
2022-12-08T01:33:43.973Z,4.15
2022-12-08T01:36:28.147Z,4.25
2022-12-08T01:38:59.485Z,3.90
2022-12-08T01:41:28.809Z,4.20
2022-12-08T01:44:08.535Z,4.13
2022-12-08T01:46:39.357Z,4.05
2022-12-08T01:49:14.292Z,4.10
2022-12-08T01:51:52.718Z,3.90
2022-12-08T01:54:19.985Z,4.18
2022-12-08T01:56:52.940Z,4.05
2022-12-08T01:59:19.888Z,4.13
2022-12-08T02:01:51.116Z,4.13
2022-12-08T02:04:18.145Z,4.38
2022-12-08T02:06:47.068Z,3.85
2022-12-08T02:09:14.530Z,4.35
2022-12-08T02:11:41.458Z,3.90
2022-12-08T02:14:09.155Z,4.22
2022-12-08T02:17:34.450Z,4.13
2022-12-08T02:20:21.658Z,3.80
2022-12-08T02:23:03.318Z,3.92
2022-12-08T02:25:46.778Z,3.83
2022-12-08T02:28:38.096Z,3.90
2022-12-08T02:31:23.359Z,3.67
2022-12-08T02:33:53.047Z,3.72
2022-12-08T02:36:35.578Z,3.67
2022-12-08T02:39:17.027Z,3.67
2022-12-08T02:41:56.802Z,3.85
2022-12-08T02:44:33.580Z,4.10
2022-12-08T02:47:12.786Z,3.53
2022-12-08T02:49:39.623Z,3.13
2022-12-08T02:52:07.279Z,3.63
2022-12-08T02:54:34.636Z,3.40
2022-12-08T02:57:13.644Z,3.72
2022-12-08T02:59:56.821Z,3.70
2022-12-08T03:02:41.856Z,3.85
2022-12-08T03:05:14.595Z,3.20
2022-12-08T03:07:48.275Z,3.42
2022-12-08T03:10:35.624Z,3.58
2022-12-08T03:13:10.261Z,3.85
2022-12-08T03:15:38.175Z,3.50
2022-12-08T03:18:06.829Z,3.28
2022-12-08T03:20:34.288Z,3.35
2022-12-08T03:23:03.972Z,3.42
2022-12-08T03:25:32.354Z,3.50
2022-12-08T03:27:59.826Z,5.32
2022-12-08T03:30:28.810Z,3.38
2022-12-08T03:33:09.748Z,3.28
2022-12-08T03:35:37.388Z,3.75
2022-12-08T03:38:07.237Z,3.38
2022-12-08T03:40:34.316Z,3.40
2022-12-08T03:43:01.328Z,3.75
2022-12-08T03:45:28.412Z,3.45
2022-12-08T03:47:55.586Z,3.15
2022-12-08T03:50:22.357Z,3.30
2022-12-08T03:52:49.411Z,3.38
2022-12-08T03:55:16.880Z,3.45
2022-12-08T03:57:43.758Z,2.90
2022-12-08T04:00:14.803Z,3.20
2022-12-08T04:02:41.605Z,3.60
2022-12-08T04:05:08.750Z,3.38
2022-12-08T04:07:35.452Z,3.40
2022-12-08T04:10:02.413Z,3.50
2022-12-08T04:12:29.265Z,2.97
2022-12-08T04:14:55.922Z,3.30
2022-12-08T04:17:22.640Z,3.20
2022-12-08T04:19:49.294Z,3.08
2022-12-08T04:22:15.976Z,3.08
2022-12-08T04:24:42.751Z,3.22
2022-12-08T04:27:09.422Z,3.40
2022-12-08T04:29:36.124Z,4.28
2022-12-08T04:32:02.955Z,3.50
2022-12-08T04:34:29.683Z,3.75
2022-12-08T04:36:56.459Z,4.38
2022-12-08T04:39:23.215Z,3.35
2022-12-08T04:41:49.931Z,3.30
2022-12-08T04:44:16.659Z,3.53
2022-12-08T04:46:43.931Z,3.78
2022-12-08T04:49:10.960Z,3.50
2022-12-08T04:51:37.730Z,3.25
2022-12-08T04:54:04.539Z,3.40
2022-12-08T04:56:31.212Z,3.42
2022-12-08T04:58:57.929Z,3.97
2022-12-08T05:01:24.674Z,3.83
2022-12-08T05:03:51.502Z,3.42
2022-12-08T05:06:18.267Z,3.47
2022-12-08T05:08:44.991Z,3.50
2022-12-08T05:11:12.717Z,3.50
2022-12-08T05:13:39.704Z,3.20
2022-12-08T05:16:12.034Z,3.58
2022-12-08T05:18:39.633Z,3.90
2022-12-08T05:21:06.883Z,3.25
2022-12-08T05:23:33.757Z,3.50
2022-12-08T05:26:00.857Z,4.53
2022-12-08T05:28:43.905Z,3.78
2022-12-08T05:31:12.838Z,3.25
2022-12-08T05:33:39.914Z,3.65
2022-12-08T05:36:07.306Z,3.45
2022-12-08T05:38:34.143Z,3.30
2022-12-08T05:41:00.911Z,3.17
2022-12-08T05:43:27.709Z,3.17
2022-12-08T05:45:54.660Z,3.38
2022-12-08T05:48:21.447Z,3.20
2022-12-08T05:50:49.284Z,3.10
2022-12-08T05:53:16.931Z,3.85
2022-12-08T05:55:43.727Z,3.50
2022-12-08T05:58:16.850Z,2.95
2022-12-08T06:00:43.601Z,3.38
2022-12-08T06:03:15.058Z,3.20
2022-12-08T06:05:42.586Z,3.15
2022-12-08T06:08:09.738Z,3.10
2022-12-08T06:10:38.537Z,3.50
2022-12-08T06:13:05.285Z,3.35
2022-12-08T06:15:34.568Z,2.90
2022-12-08T06:18:01.295Z,3.22
2022-12-08T06:20:28.053Z,3.30
2022-12-08T06:22:55.361Z,3.65
2022-12-08T06:25:22.411Z,3.25
2022-12-08T06:27:49.331Z,3.30
2022-12-08T06:30:16.774Z,3.33
2022-12-08T06:32:44.472Z,3.08
2022-12-08T06:35:11.143Z,3.40
2022-12-08T06:37:37.815Z,3.40
2022-12-08T06:40:05.019Z,3.38
2022-12-08T06:42:44.091Z,3.88
2022-12-08T06:45:12.178Z,3.13
2022-12-08T06:47:38.976Z,3.35
2022-12-08T06:50:07.839Z,3.67
2022-12-08T06:52:37.686Z,3.50
2022-12-08T06:55:08.518Z,4.35
2022-12-08T06:57:35.653Z,6.65
2022-12-08T07:00:03.328Z,3.28
2022-12-08T07:02:30.390Z,3.20
2022-12-08T07:04:57.178Z,4.22
2022-12-08T07:07:23.842Z,3.50
2022-12-08T07:09:50.805Z,3.42
2022-12-08T07:12:17.537Z,3.60
2022-12-08T07:14:44.212Z,4.22
2022-12-08T07:17:11.029Z,3.30
2022-12-08T07:19:37.766Z,3.30
2022-12-08T07:22:04.559Z,3.20
2022-12-08T07:24:31.352Z,3.35
2022-12-08T07:26:58.078Z,3.90
2022-12-08T07:29:26.362Z,3.30
2022-12-08T07:31:53.290Z,4.50
2022-12-08T07:34:19.994Z,3.60
2022-12-08T07:36:46.638Z,3.38
2022-12-08T07:39:13.281Z,3.83
2022-12-08T07:41:39.941Z,3.85
2022-12-08T07:44:06.634Z,4.45
2022-12-08T07:46:33.412Z,3.90
2022-12-08T07:49:00.290Z,3.72
2022-12-08T07:51:27.008Z,3.90
2022-12-08T07:53:55.067Z,3.95
2022-12-08T07:56:25.065Z,3.65
2022-12-08T07:58:51.771Z,4.40
2022-12-08T08:01:23.147Z,15.02
2022-12-08T08:03:50.220Z,9.93
2022-12-08T08:06:16.970Z,17.13
2022-12-08T08:08:43.652Z,9.52
2022-12-08T08:11:17.411Z,12.77
2022-12-08T08:13:47.461Z,11.30
2022-12-08T08:16:14.398Z,12.75
2022-12-08T08:18:41.591Z,7.75
2022-12-08T08:21:43.101Z,7.78
2022-12-08T08:23:55.041Z,9.55
2022-12-08T08:26:21.714Z,8.15
2022-12-08T08:28:50.061Z,4.78
2022-12-08T08:31:16.886Z,4.70
2022-12-08T08:33:43.665Z,4.72
2022-12-08T08:36:10.958Z,6.90
2022-12-08T08:38:42.885Z,7.07
2022-12-08T08:41:10.617Z,5.75
2022-12-08T08:43:38.505Z,5.55
2022-12-08T08:46:06.459Z,4.95
2022-12-08T08:48:33.734Z,4.30
2022-12-08T08:51:07.693Z,6.97
2022-12-08T08:53:37.121Z,5.53
2022-12-08T08:56:11.476Z,6.55
2022-12-08T08:58:38.637Z,6.07
2022-12-08T09:01:05.915Z,5.05
2022-12-08T09:03:32.805Z,4.50
2022-12-08T09:05:59.705Z,6.22
2022-12-08T09:08:26.926Z,5.38
2022-12-08T09:10:53.682Z,4.20
2022-12-08T09:13:20.375Z,4.30
2022-12-08T09:15:47.076Z,4.90
2022-12-08T09:18:13.851Z,5.50
2022-12-08T09:20:40.936Z,6.05
2022-12-08T09:23:08.403Z,4.40
2022-12-08T09:25:36.619Z,4.10
2022-12-08T09:28:04.189Z,4.13
2022-12-08T09:30:49.185Z,3.97
2022-12-08T09:33:28.047Z,3.92
2022-12-08T09:36:34.865Z,6.90
2022-12-08T09:39:11.808Z,5.25
2022-12-08T09:41:51.252Z,4.68
2022-12-08T09:45:04.434Z,4.90
2022-12-08T09:47:46.210Z,4.78
2022-12-08T09:50:29.645Z,4.55
2022-12-08T09:53:36.829Z,4.88
2022-12-08T09:56:25.896Z,4.60
2022-12-08T09:59:24.005Z,5.63
2022-12-08T10:01:51.186Z,4.13
2022-12-08T10:04:32.648Z,4.10
2022-12-08T10:07:21.511Z,4.30
2022-12-08T10:09:58.375Z,6.63
2022-12-08T10:12:32.993Z,7.03
2022-12-08T10:15:34.694Z,4.57
2022-12-08T10:18:04.628Z,4.57
2022-12-08T10:20:49.757Z,5.88
2022-12-08T10:23:25.207Z,6.97
2022-12-08T10:26:19.386Z,4.55
2022-12-08T10:28:52.315Z,6.30
2022-12-08T10:31:22.280Z,5.38
2022-12-08T10:34:01.813Z,6.30
2022-12-08T10:36:59.075Z,5.90
2022-12-08T10:39:40.578Z,7.47
2022-12-08T10:42:22.435Z,6.90
2022-12-08T10:45:01.328Z,6.10
2022-12-08T10:47:28.928Z,5.72
2022-12-08T10:50:08.275Z,7.00
2022-12-08T10:52:40.103Z,6.28
2022-12-08T10:55:20.738Z,6.03
2022-12-08T10:57:50.899Z,5.90
2022-12-08T11:00:21.802Z,7.00
2022-12-08T11:03:03.287Z,7.57
2022-12-08T11:05:35.778Z,7.18
2022-12-08T11:08:03.740Z,9.30
2022-12-08T11:10:43.181Z,7.80
2022-12-08T11:13:21.686Z,5.55
2022-12-08T11:15:49.757Z,6.38
2022-12-08T11:18:44.457Z,6.88
2022-12-08T11:21:14.258Z,6.45
2022-12-08T11:23:42.805Z,7.10
2022-12-08T11:26:31.929Z,8.85
2022-12-08T11:28:58.772Z,11.45
2022-12-08T11:31:29.610Z,10.35
2022-12-08T11:33:56.786Z,15.93
2022-12-08T11:36:26.765Z,13.38
2022-12-08T11:38:57.471Z,14.10
2022-12-08T11:41:47.608Z,15.18
2022-12-08T11:44:14.212Z,18.25
2022-12-08T11:46:46.314Z,19.45
2022-12-08T11:49:14.381Z,13.48
2022-12-08T11:51:54.004Z,17.05
2022-12-08T11:54:21.035Z,19.70
2022-12-08T11:56:51.555Z,15.48
2022-12-08T11:59:35.292Z,15.15
2022-12-08T12:02:03.498Z,17.23
2022-12-08T12:04:37.327Z,18.58
2022-12-08T12:07:24.573Z,20.48
2022-12-08T12:10:11.514Z,18.88
2022-12-08T12:15:22.541Z,18.55
2022-12-08T12:18:23.434Z,18.65
2022-12-08T12:20:59.645Z,14.52
2022-12-08T12:23:42.984Z,18.63
2022-12-08T12:26:18.254Z,15.75
2022-12-08T12:28:50.095Z,15.07
2022-12-08T12:31:18.322Z,16.40
2022-12-08T12:33:46.934Z,20.25
2022-12-08T12:36:14.338Z,19.08
2022-12-08T12:39:01.827Z,15.73
2022-12-08T12:41:31.499Z,17.90
2022-12-08T12:44:13.442Z,15.88
2022-12-08T12:46:46.202Z,17.95
2022-12-08T12:49:40.881Z,16.35
2022-12-08T12:52:10.660Z,15.05
2022-12-08T12:54:43.071Z,13.32
2022-12-08T12:57:09.712Z,17.17
2022-12-08T13:00:02.762Z,18.52
2022-12-08T13:07:20.299Z,12.55
2022-12-08T13:10:15.760Z,13.75
2022-12-08T13:12:46.467Z,12.25
2022-12-08T13:15:19.711Z,12.25
2022-12-08T13:17:48.054Z,13.80
2022-12-08T13:20:23.389Z,12.40
2022-12-08T13:26:56.057Z,13.15
2022-12-08T13:43:07.624Z,14.43
2022-12-08T14:10:48.655Z,11.10
2022-12-08T14:22:46.512Z,9.90
2022-12-08T14:26:03.240Z,11.00
2022-12-08T14:28:41.494Z,10.75
2022-12-08T14:31:30.537Z,10.27
2022-12-08T14:38:30.476Z,10.18
2022-12-08T14:41:27.612Z,9.23
2022-12-08T14:48:18.788Z,11.98
2022-12-08T14:51:03.881Z,10.07
2022-12-08T14:53:46.516Z,9.98
2022-12-08T14:56:21.372Z,8.70
2022-12-08T14:58:50.669Z,8.55
2022-12-08T15:01:22.403Z,10.50
2022-12-08T15:03:51.376Z,9.75
2022-12-08T15:06:20.658Z,8.43
2022-12-08T15:09:00.910Z,10.30
2022-12-08T15:11:37.217Z,9.50
2022-12-08T15:14:04.146Z,10.13
2022-12-08T15:16:43.095Z,11.48
2022-12-08T15:19:19.425Z,11.43
2022-12-08T15:21:47.070Z,10.77
2022-12-08T15:24:14.431Z,11.27
2022-12-08T15:26:49.194Z,10.15
2022-12-08T15:29:28.189Z,10.70
2022-12-08T15:32:25.861Z,9.65
2022-12-08T15:35:18.925Z,12.60
2022-12-08T15:37:46.855Z,10.43
2022-12-08T15:40:27.446Z,10.57
2022-12-08T15:42:57.071Z,10.85
2022-12-08T15:45:30.041Z,12.13
2022-12-08T15:47:57.450Z,13.63
2022-12-08T15:50:24.364Z,11.05
2022-12-08T15:52:51.350Z,12.45
2022-12-08T15:55:19.679Z,11.63
2022-12-08T15:58:51.639Z,10.52
2022-12-08T16:00:52.312Z,11.77
2022-12-08T16:09:23.701Z,9.75
2022-12-08T16:12:10.066Z,10.63
2022-12-08T16:17:24.749Z,10.32
2022-12-08T16:19:51.432Z,11.63
2022-12-08T16:25:18.712Z,9.75
2022-12-08T16:28:23.267Z,9.48
2022-12-08T16:30:34.354Z,9.23
2022-12-08T16:33:01.109Z,11.05
2022-12-08T16:35:27.919Z,10.43
2022-12-08T16:37:54.749Z,11.07
2022-12-08T16:40:21.676Z,9.52
2022-12-08T16:42:50.161Z,10.55
2022-12-08T16:45:20.909Z,11.15
2022-12-08T16:47:55.667Z,8.80
2022-12-08T16:50:30.933Z,8.57
2022-12-08T16:53:00.008Z,8.05
2022-12-08T16:55:27.858Z,9.00
2022-12-08T16:57:56.100Z,8.75
2022-12-08T17:00:49.261Z,8.25
2022-12-08T17:03:17.094Z,8.27
2022-12-08T17:06:09.651Z,9.27
2022-12-08T17:08:37.981Z,9.68
2022-12-08T17:14:34.513Z,8.73
2022-12-08T17:17:01.217Z,7.93
2022-12-08T17:19:27.934Z,7.65
2022-12-08T17:21:54.560Z,8.40
2022-12-08T17:24:23.115Z,9.18
2022-12-08T17:26:49.842Z,9.20
2022-12-08T17:29:18.676Z,7.63
2022-12-08T17:31:45.535Z,8.02
2022-12-08T17:34:12.316Z,8.20
2022-12-08T17:36:38.967Z,8.98
2022-12-08T17:39:06.085Z,7.40
2022-12-08T17:58:27.391Z,7.40
2022-12-08T18:00:54.524Z,8.15
2022-12-08T18:12:01.402Z,7.88
2022-12-08T18:14:28.283Z,7.57
2022-12-08T18:16:55.140Z,9.15
2022-12-08T18:19:21.988Z,7.20
2022-12-08T18:21:48.624Z,7.15
2022-12-08T18:24:22.075Z,7.70
2022-12-08T18:26:50.645Z,6.82
2022-12-08T18:29:17.507Z,6.80
2022-12-08T18:31:44.289Z,6.75
2022-12-08T18:34:11.610Z,7.05
2022-12-08T18:36:38.250Z,7.80
2022-12-08T18:39:10.546Z,7.63
2022-12-08T18:41:37.731Z,6.45
2022-12-08T18:44:04.676Z,6.85
2022-12-08T18:46:31.541Z,7.70
2022-12-08T18:48:59.486Z,7.57
2022-12-08T18:51:26.244Z,6.13
2022-12-08T18:53:53.313Z,6.32
2022-12-08T18:56:28.732Z,5.93
2022-12-08T18:59:02.836Z,7.00
2022-12-08T19:01:34.891Z,8.75
2022-12-08T19:04:27.496Z,9.40
2022-12-08T19:06:52.208Z,14.43
2022-12-08T19:09:19.501Z,15.73
2022-12-08T19:11:46.354Z,19.05
2022-12-08T19:14:13.078Z,20.50
2022-12-08T19:16:39.794Z,20.00
2022-12-08T19:19:06.488Z,21.27
2022-12-08T19:21:33.296Z,23.77
2022-12-08T19:24:00.169Z,23.50
2022-12-08T19:26:27.943Z,21.17
2022-12-08T19:28:54.705Z,24.00
2022-12-08T19:31:21.472Z,23.90
2022-12-08T19:33:48.263Z,23.73
2022-12-08T19:36:17.979Z,24.25
2022-12-08T19:39:03.452Z,23.25
2022-12-08T19:41:48.888Z,25.00
2022-12-08T19:44:38.973Z,24.23
2022-12-08T19:47:05.978Z,23.52
2022-12-08T19:49:33.228Z,26.70
2022-12-08T19:52:00.182Z,23.75
2022-12-08T19:54:27.279Z,25.23
2022-12-08T19:56:54.070Z,24.02
2022-12-08T19:59:20.796Z,26.08
2022-12-08T20:01:51.363Z,22.83
2022-12-08T20:04:18.431Z,20.70
2022-12-08T20:06:45.748Z,23.98
2022-12-08T20:09:13.330Z,23.85
2022-12-08T20:11:40.267Z,23.88
2022-12-08T20:14:06.966Z,22.10
2022-12-08T20:16:33.927Z,24.67
2022-12-08T20:19:01.409Z,23.85
2022-12-08T20:21:28.450Z,22.98
2022-12-08T20:23:55.220Z,24.40
2022-12-08T20:26:22.825Z,20.65
2022-12-08T20:28:50.160Z,23.05
2022-12-08T20:31:18.289Z,23.00
2022-12-08T20:33:45.168Z,24.00
2022-12-08T20:36:16.865Z,20.50
2022-12-08T20:38:43.812Z,23.63
2022-12-08T20:41:10.811Z,22.55
2022-12-08T20:43:37.626Z,22.67
2022-12-08T20:46:09.098Z,19.48
2022-12-08T20:48:35.897Z,21.42
2022-12-08T20:51:02.658Z,22.77
2022-12-08T20:53:29.584Z,21.23
2022-12-08T20:55:56.326Z,19.42
2022-12-08T20:58:23.251Z,19.27
2022-12-08T21:00:50.219Z,18.85
2022-12-08T21:03:18.619Z,21.40
2022-12-08T21:05:50.714Z,18.63
2022-12-08T21:08:19.510Z,19.63
2022-12-08T21:10:52.668Z,19.42
2022-12-08T21:13:19.466Z,20.40
2022-12-08T21:15:49.045Z,20.50
2022-12-08T21:18:16.941Z,19.92
2022-12-08T21:20:44.468Z,18.92
2022-12-08T21:23:11.458Z,18.42
2022-12-08T21:25:42.442Z,18.67
2022-12-08T21:28:09.931Z,16.92
2022-12-08T21:30:39.741Z,16.60
2022-12-08T21:33:06.713Z,17.83
2022-12-08T21:35:33.459Z,18.77
2022-12-08T21:38:00.315Z,17.48
2022-12-08T21:40:27.068Z,16.88
2022-12-08T21:42:53.864Z,18.65
2022-12-08T21:45:21.345Z,17.65
2022-12-08T21:47:48.985Z,18.48
2022-12-08T21:50:16.151Z,16.00
2022-12-08T21:52:44.707Z,16.05
2022-12-08T21:55:12.555Z,17.35
2022-12-08T21:57:39.915Z,16.80
2022-12-08T22:00:08.573Z,17.48
2022-12-08T22:02:35.744Z,17.60
2022-12-08T22:05:02.577Z,15.05
2022-12-08T22:07:29.749Z,15.75
2022-12-08T22:09:56.651Z,16.17
2022-12-08T22:12:23.629Z,16.58
2022-12-08T22:14:51.030Z,15.57
2022-12-08T22:17:18.734Z,16.40
2022-12-08T22:19:46.048Z,15.98
2022-12-08T22:22:12.911Z,14.75
2022-12-08T22:24:39.760Z,14.18
2022-12-08T22:27:06.709Z,17.02
2022-12-08T22:29:33.549Z,15.43
2022-12-08T22:32:00.391Z,15.40
2022-12-08T22:34:27.344Z,15.68
2022-12-08T22:36:54.291Z,16.75
2022-12-08T22:39:21.119Z,17.58
2022-12-08T22:41:47.953Z,17.05
2022-12-08T22:44:17.607Z,18.20
2022-12-08T22:46:45.189Z,16.40
2022-12-08T22:49:12.090Z,17.27
2022-12-08T22:51:38.862Z,16.80
2022-12-08T22:54:05.978Z,16.13
2022-12-08T22:56:32.731Z,15.75
2022-12-08T22:58:59.895Z,15.68
2022-12-08T23:01:29.985Z,19.67
2022-12-08T23:03:58.215Z,16.70
2022-12-08T23:06:26.167Z,16.42
2022-12-08T23:08:53.522Z,13.88
2022-12-08T23:11:21.823Z,15.30
2022-12-08T23:13:49.040Z,16.05
2022-12-08T23:16:16.179Z,16.10
2022-12-08T23:18:44.518Z,15.02
2022-12-08T23:21:14.407Z,15.40
2022-12-08T23:23:41.507Z,15.43
2022-12-08T23:26:16.270Z,14.77
2022-12-08T23:28:43.132Z,15.07
2022-12-08T23:31:09.949Z,15.30
2022-12-08T23:33:36.741Z,14.73
2022-12-08T23:36:03.898Z,13.05
2022-12-08T23:38:30.850Z,13.32
2022-12-08T23:41:05.935Z,13.25
2022-12-08T23:43:33.355Z,14.73
2022-12-08T23:46:00.683Z,14.60
2022-12-08T23:48:29.206Z,14.48
2022-12-08T23:50:57.143Z,15.98
2022-12-08T23:53:24.010Z,15.38
2022-12-08T23:55:50.810Z,13.02
2022-12-08T23:58:17.490Z,14.68
